Andrews Air Force Base
KADW : now visible

Airfield :











YOU CAN JOIN US ON...

 
LOGIN :

Register | Disclaimer

   EN    FR    IT 

 









Legend :    VFR   Marginal VFR   IFR   Intensive IFR   Very Intensive IFR
Visi :
Ceiling :
>= 8 km
>= 3000ft
5 to 8 km
1000 to 3000 ft
1500m to 5 km
500 to 1000 ft
800 to 1500m
200 to 500 ft
< 800m
< 200 ft
Symbols :   Thunderstorms  Fog  Heavy snow  Heavy precipitations  Wind > 20 kt







- Airport Elevation : 280 ft


KADW - Andrews Air Force Base

CURRENT METAR :
  • 210756Z AUTO 00000KT 10SM CLR 25/22 A2986 RMK AO2 SLP115 T02530220 $

EXPIRED METARs :
  • 210656Z AUTO 00000KT 10SM CLR 28/21 A2988 RMK AO2 SLP122 T02810211 $
  • 210556Z AUTO 00000KT 10SM CLR 29/21 A2988 RMK AO2 SLP122 T02920206 10330 20292 52005 $

TAF AMD TAF KADW
Valid from the 21 at 02:00 until the 22 at 07:00 UTC


210218Z 2102/2207 25009KT 9999 FEW190 QNH2986INS
TEMPO 2102/2105 25010G15KT 8000 -TSRA BKN020CB
BECMG 2123/2124 30012KT 9999 BKN050 QNH2987INS
BECMG 2202/2203 25006KT 9999 BKN050 QNH2984INS TX37/2121Z TN27/2109Z
KZDC FIR / North America



MET'MAP, your aeronautical weather chart ! - Copyright ORBIFLY December 2007 - Disclaimer

ORBIFLY MET'MAP TEAM :

Programming & Development : Alexandra Zaïnal
Concept & Development : Baudouin d'Aumeries
Co-Development & Prog : Marc-Olivier Méhu
Technical & hardware support : Manuel Goepfert

Contact : metmap@orbifly.com




SOURCES & CREDITS :

   NOAA       Earth
Advisory